Time;durP1;ratioP1;P1;durP2;ratioP2;P2;SDS_P1;SDS_P2;PMS_P1;PMS_P2;Temp;Humidity;BMP_temperature;BMP_pressure;BME280_temperature;BME280_humidity;BME280_pressure;Samples;Min_cycle;Max_cycle;Signal;HPM_P1;HPM_P2
2022/03/15 00:01:24;;;;;;;54.47;29.57;;;6.10;99.90;;;;;;4971244;28;20204;-78
2022/03/15 00:03:50;;;;;;;52.77;27.77;;;6.10;99.90;;;;;;4960570;28;20525;-77
2022/03/15 00:06:16;;;;;;;56.93;29.80;;;6.20;99.90;;;;;;4976174;28;20230;-78
2022/03/15 00:08:44;;;;;;;83.40;31.10;;;6.30;99.90;;;;;;4960684;28;20172;-78
2022/03/15 00:11:10;;;;;;;89.60;31.03;;;6.20;99.90;;;;;;4978782;28;20210;-78
2022/03/15 00:13:38;;;;;;;79.47;32.53;;;6.20;99.90;;;;;;4979557;28;20282;-78
2022/03/15 00:16:06;;;;;;;71.47;31.63;;;6.20;99.90;;;;;;4960490;28;20179;-78
2022/03/15 00:18:32;;;;;;;151.07;32.63;;;6.20;99.90;;;;;;4948178;29;20201;-78
2022/03/15 00:20:59;;;;;;;115.53;29.63;;;6.10;99.90;;;;;;4940327;29;20278;-78
2022/03/15 00:23:25;;;;;;;222.87;34.20;;;6.00;99.90;;;;;;4942030;29;20299;-78
2022/03/15 00:25:54;;;;;;;145.53;32.47;;;5.90;99.90;;;;;;4942050;29;20596;-78
2022/03/15 00:28:22;;;;;;;158.93;31.87;;;5.90;99.90;;;;;;4941041;29;20199;-77
2022/03/15 00:30:49;;;;;;;130.27;29.43;;;5.90;99.90;;;;;;4942725;29;20274;-78
2022/03/15 00:33:15;;;;;;;191.63;33.03;;;5.80;99.90;;;;;;4943376;29;20283;-78
2022/03/15 00:35:41;;;;;;;147.37;32.73;;;5.80;99.90;;;;;;4942248;29;20221;-78
2022/03/15 00:38:08;;;;;;;193.67;33.93;;;5.80;99.90;;;;;;4941588;29;20680;-79
2022/03/15 00:40:34;;;;;;;147.70;33.40;;;5.80;99.90;;;;;;4942363;29;20208;-78
2022/03/15 00:43:06;;;;;;;177.67;32.80;;;5.80;99.90;;;;;;4941837;29;20253;-79
2022/03/15 00:45:32;;;;;;;171.17;34.83;;;5.80;99.90;;;;;;4941437;29;20153;-78
2022/03/15 00:48:00;;;;;;;104.23;32.63;;;5.80;99.90;;;;;;4946226;28;20284;-77
2022/03/15 00:50:27;;;;;;;190.70;35.97;;;5.80;99.90;;;;;;4940190;29;20204;-78
2022/03/15 00:52:53;;;;;;;93.23;34.67;;;5.80;99.90;;;;;;4940039;29;20290;-78
2022/03/15 00:55:19;;;;;;;163.60;34.80;;;5.80;99.90;;;;;;4940300;29;20181;-78
2022/03/15 00:57:44;;;;;;;119.90;34.63;;;5.80;99.90;;;;;;4938608;29;20577;-78
2022/03/15 01:00:12;;;;;;;132.93;34.70;;;5.90;99.90;;;;;;4939419;29;20215;-78
2022/03/15 01:02:39;;;;;;;87.07;32.47;;;5.80;99.90;;;;;;4951878;29;20695;-78
2022/03/15 01:05:06;;;;;;;81.27;33.50;;;5.90;99.90;;;;;;4956085;29;20177;-77
2022/03/15 01:07:32;;;;;;;95.50;33.13;;;5.80;99.90;;;;;;4934561;29;20209;-78
2022/03/15 01:09:57;;;;;;;103.43;34.73;;;5.90;99.90;;;;;;4940195;29;20235;-78
2022/03/15 01:12:23;;;;;;;61.00;32.40;;;5.90;99.90;;;;;;4934050;29;20208;-77
2022/03/15 01:14:49;;;;;;;84.70;31.73;;;5.80;99.90;;;;;;4942288;29;20249;-78
2022/03/15 01:17:14;;;;;;;90.43;33.60;;;5.70;99.90;;;;;;4932072;28;20200;-77
2022/03/15 01:19:42;;;;;;;69.73;33.80;;;5.70;99.90;;;;;;4958903;28;20220;-77
2022/03/15 01:22:08;;;;;;;84.40;34.50;;;5.80;99.90;;;;;;4921685;29;20193;-77
2022/03/15 01:24:34;;;;;;;79.50;35.27;;;5.70;99.90;;;;;;4922409;29;20181;-79
2022/03/15 01:27:00;;;;;;;60.10;33.47;;;5.70;99.90;;;;;;4928889;29;20182;-77
2022/03/15 01:29:26;;;;;;;75.03;33.90;;;5.70;99.90;;;;;;4929011;29;20241;-77
2022/03/15 01:31:53;;;;;;;82.10;35.90;;;5.80;99.90;;;;;;4929794;29;20186;-77
2022/03/15 01:34:19;;;;;;;96.10;35.27;;;5.80;99.90;;;;;;4932414;29;20186;-77
2022/03/15 01:36:44;;;;;;;70.83;32.80;;;5.80;99.90;;;;;;4934446;29;20188;-77
2022/03/15 01:39:11;;;;;;;69.70;33.83;;;5.80;99.90;;;;;;4931029;29;20219;-78
2022/03/15 01:41:41;;;;;;;72.43;33.57;;;5.80;99.90;;;;;;4938140;29;20220;-78
2022/03/15 01:44:19;;;;;;;70.47;35.53;;;5.90;99.90;;;;;;4922760;29;20173;-78
2022/03/15 01:46:47;;;;;;;69.13;34.30;;;5.90;99.90;;;;;;4956519;28;20203;-79
2022/03/15 01:49:18;;;;;;;69.70;33.43;;;5.80;99.90;;;;;;4944023;29;20173;-78
2022/03/15 01:51:46;;;;;;;70.50;34.13;;;5.80;99.90;;;;;;4941936;29;20197;-78
2022/03/15 01:54:14;;;;;;;63.80;32.83;;;5.90;99.90;;;;;;4941074;29;20215;-78
2022/03/15 01:56:42;;;;;;;61.93;32.73;;;5.90;99.90;;;;;;4940986;29;20185;-78
2022/03/15 01:59:12;;;;;;;70.13;34.30;;;5.80;99.90;;;;;;4942862;29;20220;-78
2022/03/15 02:01:39;;;;;;;56.40;32.03;;;5.80;99.90;;;;;;4944807;29;20203;-78
2022/03/15 02:04:05;;;;;;;67.03;33.50;;;5.80;99.90;;;;;;4944357;29;20184;-79
2022/03/15 02:06:34;;;;;;;65.33;32.83;;;5.80;99.90;;;;;;4944125;29;20191;-78
2022/03/15 02:09:10;;;;;;;63.27;30.47;;;5.70;99.90;;;;;;4947205;29;20211;-77
2022/03/15 02:11:36;;;;;;;51.33;29.23;;;5.70;99.90;;;;;;4950014;29;20263;-77
2022/03/15 02:14:04;;;;;;;54.33;30.30;;;5.70;99.90;;;;;;4948370;29;20200;-77
2022/03/15 02:16:31;;;;;;;54.93;29.53;;;5.70;99.90;;;;;;4947515;28;20188;-78
2022/03/15 02:18:58;;;;;;;53.80;29.20;;;5.70;99.90;;;;;;4953714;28;20726;-78
2022/03/15 02:21:25;;;;;;;53.53;30.47;;;5.70;99.90;;;;;;4961801;28;20208;-77
2022/03/15 02:23:53;;;;;;;63.10;30.47;;;5.60;99.90;;;;;;4962100;28;20662;-78
2022/03/15 02:26:19;;;;;;;60.87;31.20;;;5.60;99.90;;;;;;4978631;28;20180;-78
2022/03/15 02:28:44;;;;;;;51.57;28.80;;;5.50;99.90;;;;;;4960747;28;20177;-78
2022/03/15 02:31:10;;;;;;;58.67;29.27;;;5.50;99.90;;;;;;4961126;28;20211;-78
2022/03/15 02:33:36;;;;;;;109.73;30.00;;;5.50;99.90;;;;;;4961546;28;20268;-78
2022/03/15 02:36:02;;;;;;;48.07;27.17;;;5.40;99.90;;;;;;4961761;28;20180;-78
2022/03/15 02:38:28;;;;;;;88.33;28.47;;;5.30;99.90;;;;;;4961179;28;20208;-77
2022/03/15 02:40:54;;;;;;;50.17;27.10;;;5.30;99.90;;;;;;4962035;28;20262;-78
2022/03/15 02:43:21;;;;;;;48.67;27.03;;;5.40;99.90;;;;;;4961398;28;20180;-78
2022/03/15 02:45:46;;;;;;;42.27;24.87;;;5.40;99.90;;;;;;4957846;29;20180;-78
2022/03/15 02:48:12;;;;;;;52.33;26.03;;;5.50;99.90;;;;;;4951279;28;20188;-78
2022/03/15 02:50:39;;;;;;;40.47;24.20;;;5.60;99.90;;;;;;4977238;28;20255;-77
2022/03/15 02:53:05;;;;;;;48.60;25.80;;;5.50;99.90;;;;;;4960368;28;20180;-77
2022/03/15 02:55:32;;;;;;;53.60;28.13;;;5.50;99.90;;;;;;4958388;28;20195;-77
2022/03/15 02:58:00;;;;;;;46.60;28.63;;;5.70;99.90;;;;;;4957124;29;20231;-77
2022/03/15 03:00:30;;;;;;;55.43;28.50;;;5.60;99.90;;;;;;4941265;29;20207;-77
2022/03/15 03:02:57;;;;;;;50.47;28.33;;;5.50;99.90;;;;;;4957067;29;20699;-77
2022/03/15 03:05:23;;;;;;;59.87;29.50;;;5.40;99.90;;;;;;4957719;29;20181;-77
2022/03/15 03:07:49;;;;;;;50.63;29.50;;;5.40;99.90;;;;;;4957243;29;20195;-78
2022/03/15 03:10:16;;;;;;;59.50;30.23;;;5.30;99.90;;;;;;4956796;28;20236;-77
2022/03/15 03:12:49;;;;;;;53.13;27.53;;;5.40;99.90;;;;;;4940797;29;20181;-77
2022/03/15 03:15:21;;;;;;;58.30;31.90;;;5.40;99.90;;;;;;4957758;29;20169;-77
2022/03/15 03:17:46;;;;;;;48.57;27.30;;;5.60;99.90;;;;;;4965059;28;20200;-77
2022/03/15 03:20:19;;;;;;;51.93;29.03;;;5.50;99.90;;;;;;4955998;28;20216;-78
2022/03/15 03:22:46;;;;;;;62.27;31.30;;;5.50;99.90;;;;;;4922632;29;20538;-77
2022/03/15 03:25:15;;;;;;;69.10;33.73;;;5.50;99.90;;;;;;4922637;29;20205;-79
2022/03/15 03:27:41;;;;;;;68.47;33.10;;;5.50;99.90;;;;;;4922028;29;20182;-78
2022/03/15 03:30:08;;;;;;;57.27;28.33;;;5.60;99.90;;;;;;4922333;29;20201;-77
2022/03/15 03:32:34;;;;;;;79.83;30.37;;;5.70;99.90;;;;;;4954097;29;20181;-78
2022/03/15 03:35:04;;;;;;;55.00;28.00;;;5.80;99.90;;;;;;4922045;29;20653;-77
2022/03/15 03:37:31;;;;;;;54.80;29.73;;;5.70;99.90;;;;;;4922127;29;20186;-77
2022/03/15 03:39:57;;;;;;;65.27;29.70;;;5.80;99.90;;;;;;4939229;29;20211;-78
2022/03/15 03:42:25;;;;;;;73.87;31.80;;;5.80;99.90;;;;;;4926777;29;20182;-78
2022/03/15 03:44:51;;;;;;;75.00;31.57;;;5.60;99.90;;;;;;4923764;29;20209;-77
2022/03/15 03:47:17;;;;;;;59.17;29.67;;;5.60;99.90;;;;;;4939319;28;20197;-78
2022/03/15 03:49:43;;;;;;;70.77;32.20;;;5.50;99.90;;;;;;4948007;28;20243;-78
2022/03/15 03:52:12;;;;;;;65.73;31.13;;;5.60;99.90;;;;;;4942376;29;20641;-78
2022/03/15 03:54:38;;;;;;;76.83;34.77;;;5.60;99.90;;;;;;4942544;29;20180;-77
2022/03/15 03:57:04;;;;;;;87.90;35.30;;;5.60;99.90;;;;;;4943123;29;20191;-77
2022/03/15 03:59:29;;;;;;;82.33;37.80;;;5.60;99.90;;;;;;4955248;28;20239;-76
2022/03/15 04:01:56;;;;;;;74.70;35.50;;;5.60;99.90;;;;;;4962532;28;20172;-79
2022/03/15 04:04:22;;;;;;;98.43;43.27;;;5.70;99.90;;;;;;4961959;29;20189;-75
2022/03/15 04:06:47;;;;;;;94.20;41.00;;;5.70;99.90;;;;;;4963269;29;20248;-76
2022/03/15 04:09:13;;;;;;;96.43;41.57;;;5.60;99.90;;;;;;4962915;29;20191;-77
2022/03/15 04:11:40;;;;;;;106.70;43.93;;;5.60;99.90;;;;;;4963363;29;20193;-77
2022/03/15 04:14:12;;;;;;;101.20;42.37;;;5.60;99.90;;;;;;4962861;28;20177;-77
2022/03/15 04:16:39;;;;;;;103.43;44.37;;;5.60;99.90;;;;;;4963215;29;20165;-77
2022/03/15 04:19:05;;;;;;;103.53;42.57;;;5.40;99.90;;;;;;4962522;29;20211;-77
2022/03/15 04:21:30;;;;;;;102.53;43.60;;;5.40;99.90;;;;;;4960496;29;20355;-78
2022/03/15 04:23:56;;;;;;;99.37;41.50;;;5.50;99.90;;;;;;4961082;29;20212;-76
2022/03/15 04:26:23;;;;;;;99.70;43.60;;;5.50;99.90;;;;;;4962504;29;20173;-77
2022/03/15 04:28:49;;;;;;;102.03;42.53;;;5.40;99.90;;;;;;4962015;28;20200;-76
2022/03/15 04:31:18;;;;;;;99.00;42.77;;;5.40;99.90;;;;;;4962274;29;20205;-77
2022/03/15 04:33:45;;;;;;;101.30;41.27;;;5.40;99.90;;;;;;4962219;29;20244;-77
2022/03/15 04:36:11;;;;;;;86.47;39.93;;;5.40;99.90;;;;;;4962220;29;20180;-78
2022/03/15 04:38:36;;;;;;;89.90;38.97;;;5.40;99.90;;;;;;4961360;29;20251;-77
2022/03/15 04:41:05;;;;;;;98.37;40.80;;;5.30;99.90;;;;;;4958387;29;20213;-77
2022/03/15 04:43:31;;;;;;;100.00;39.87;;;5.30;99.90;;;;;;4956089;29;20184;-78
2022/03/15 04:45:57;;;;;;;89.93;39.50;;;5.40;99.90;;;;;;4953592;29;20188;-78
2022/03/15 04:48:23;;;;;;;93.63;39.30;;;5.40;99.90;;;;;;4962754;28;20188;-77
2022/03/15 04:50:49;;;;;;;105.27;41.37;;;5.40;99.90;;;;;;4971490;28;20199;-78
2022/03/15 04:53:15;;;;;;;102.80;40.80;;;5.30;99.90;;;;;;4962394;29;20187;-77
2022/03/15 04:55:42;;;;;;;113.03;40.33;;;5.20;99.90;;;;;;4945525;29;20624;-77
2022/03/15 04:58:08;;;;;;;97.43;39.53;;;5.20;99.90;;;;;;4959358;29;20692;-78
2022/03/15 05:00:34;;;;;;;89.70;38.90;;;5.20;99.90;;;;;;4937454;29;20215;-77
2022/03/15 05:03:01;;;;;;;92.40;38.00;;;5.20;99.90;;;;;;4958810;28;20216;-77
2022/03/15 05:05:27;;;;;;;97.07;39.00;;;5.30;99.90;;;;;;4936304;29;20180;-77
2022/03/15 05:07:53;;;;;;;93.87;38.00;;;5.30;99.90;;;;;;4957339;29;20188;-79
2022/03/15 05:13:03;;;;;;;137.77;34.50;;;5.30;99.90;;;;;;4957362;29;20219;-77
2022/03/15 05:15:29;;;;;;;85.10;34.43;;;5.30;99.90;;;;;;4950836;28;20184;-78
2022/03/15 05:17:54;;;;;;;88.70;34.60;;;5.20;99.90;;;;;;4949168;28;20200;-78
2022/03/15 05:20:20;;;;;;;128.33;37.93;;;5.20;99.90;;;;;;4958510;28;20234;-77
2022/03/15 05:22:46;;;;;;;78.63;33.80;;;5.20;99.90;;;;;;4976116;28;20208;-77
2022/03/15 05:25:15;;;;;;;86.77;36.33;;;5.30;99.90;;;;;;4960819;28;20644;-77
2022/03/15 05:27:42;;;;;;;83.70;36.50;;;5.30;99.90;;;;;;4959703;28;20536;-77
2022/03/15 05:30:09;;;;;;;90.60;36.70;;;5.40;99.90;;;;;;4960546;28;20251;-78
2022/03/15 05:32:34;;;;;;;121.03;34.53;;;5.20;99.90;;;;;;4960661;28;20248;-77
2022/03/15 05:35:02;;;;;;;109.33;36.00;;;5.10;99.90;;;;;;4963205;28;20215;-77
2022/03/15 05:37:27;;;;;;;81.07;33.93;;;5.00;99.90;;;;;;4962234;28;20231;-76
2022/03/15 05:39:54;;;;;;;85.27;33.37;;;5.20;99.90;;;;;;4964526;28;20223;-78
2022/03/15 05:42:19;;;;;;;101.97;36.70;;;5.20;99.90;;;;;;4964354;28;20176;-78
2022/03/15 05:44:46;;;;;;;100.17;34.73;;;5.20;99.90;;;;;;4963874;28;20176;-77
2022/03/15 05:47:12;;;;;;;96.30;35.07;;;5.20;99.90;;;;;;4957638;28;20199;-78
2022/03/15 05:49:37;;;;;;;128.30;36.10;;;5.20;99.90;;;;;;4951264;28;20267;-77
2022/03/15 05:52:03;;;;;;;102.93;35.40;;;5.20;99.90;;;;;;4944610;29;20180;-77
2022/03/15 05:54:30;;;;;;;84.80;34.30;;;5.20;99.90;;;;;;4949726;29;20185;-78
2022/03/15 05:56:56;;;;;;;79.70;34.90;;;5.10;99.90;;;;;;4949934;29;20176;-79
2022/03/15 05:59:22;;;;;;;82.10;33.67;;;5.20;99.90;;;;;;4947420;29;20220;-77
2022/03/15 06:01:47;;;;;;;106.63;32.43;;;5.20;99.90;;;;;;4949900;29;20208;-78
2022/03/15 06:04:17;;;;;;;75.00;30.47;;;5.20;99.90;;;;;;4950792;29;20181;-78
2022/03/15 06:06:43;;;;;;;69.93;31.67;;;5.20;99.90;;;;;;4950248;29;20177;-78
2022/03/15 06:09:09;;;;;;;87.80;31.30;;;5.20;99.90;;;;;;4950442;29;20188;-78
2022/03/15 06:11:39;;;;;;;69.20;28.40;;;5.30;99.90;;;;;;4950807;29;20200;-78
2022/03/15 06:14:06;;;;;;;62.07;26.83;;;5.20;99.90;;;;;;4949595;29;20188;-78
2022/03/15 06:16:34;;;;;;;71.70;27.93;;;5.00;99.90;;;;;;4947237;29;20275;-78
2022/03/15 06:18:59;;;;;;;82.27;27.23;;;5.10;99.90;;;;;;4966302;28;20295;-78
2022/03/15 06:21:25;;;;;;;87.47;27.33;;;4.90;99.90;;;;;;4928830;29;20233;-78
2022/03/15 06:23:51;;;;;;;65.87;25.57;;;4.90;99.90;;;;;;4928295;29;20217;-77
2022/03/15 06:26:21;;;;;;;67.17;27.67;;;5.00;99.90;;;;;;4924922;29;20178;-79
2022/03/15 06:28:47;;;;;;;63.60;27.70;;;5.00;99.90;;;;;;4924270;29;20181;-77
2022/03/15 06:31:21;;;;;;;56.93;26.83;;;4.80;99.90;;;;;;4926126;29;20673;-77
2022/03/15 06:33:50;;;;;;;56.67;26.80;;;4.80;99.90;;;;;;4957629;29;20663;-78
2022/03/15 06:36:18;;;;;;;55.67;26.40;;;4.90;99.90;;;;;;4925962;29;20177;-78
2022/03/15 06:38:46;;;;;;;95.73;28.87;;;4.90;99.90;;;;;;4924781;29;20213;-77
2022/03/15 06:41:13;;;;;;;56.53;27.27;;;5.00;99.90;;;;;;4938681;29;20210;-78
2022/03/15 06:43:41;;;;;;;77.30;27.40;;;4.80;99.90;;;;;;4923284;29;20182;-78
2022/03/15 06:46:08;;;;;;;58.47;28.37;;;4.80;99.90;;;;;;4933989;28;20597;-77
2022/03/15 06:48:35;;;;;;;52.23;27.13;;;4.80;99.90;;;;;;4947354;28;20548;-78
2022/03/15 06:51:03;;;;;;;56.27;27.63;;;4.80;99.90;;;;;;4945886;28;20259;-79
2022/03/15 06:53:35;;;;;;;55.03;28.47;;;4.90;99.90;;;;;;4951999;29;20319;-79
2022/03/15 06:56:01;;;;;;;93.57;27.47;;;5.00;99.90;;;;;;4953016;29;20256;-74
2022/03/15 06:58:28;;;;;;;58.70;26.63;;;4.90;99.90;;;;;;4949076;29;20235;-74
2022/03/15 07:00:55;;;;;;;59.70;27.10;;;4.80;99.90;;;;;;4950208;28;20193;-74
2022/03/15 07:03:21;;;;;;;53.70;28.50;;;4.70;99.90;;;;;;4950038;29;20205;-75
2022/03/15 07:05:47;;;;;;;61.33;27.47;;;4.80;99.90;;;;;;4940291;29;20275;-74
2022/03/15 07:08:17;;;;;;;53.43;27.03;;;5.00;99.90;;;;;;4946528;29;20195;-75
2022/03/15 07:10:45;;;;;;;141.97;28.90;;;5.10;99.90;;;;;;4958231;28;20295;-76
2022/03/15 07:13:11;;;;;;;50.87;25.77;;;5.20;99.90;;;;;;4944441;29;20648;-75
2022/03/15 07:15:37;;;;;;;44.10;23.90;;;5.10;99.90;;;;;;4948457;29;20212;-74
2022/03/15 07:18:02;;;;;;;47.17;21.67;;;5.10;99.90;;;;;;4962073;28;20204;-75
2022/03/15 07:20:28;;;;;;;100.40;24.37;;;5.00;99.90;;;;;;4940071;29;20295;-75
2022/03/15 07:22:54;;;;;;;43.47;24.27;;;4.80;99.90;;;;;;4941708;29;20172;-76
2022/03/15 07:25:21;;;;;;;52.80;25.23;;;4.70;99.90;;;;;;4944477;29;20188;-75
2022/03/15 07:27:47;;;;;;;141.50;30.17;;;4.70;99.90;;;;;;4942076;29;20184;-78
2022/03/15 07:30:13;;;;;;;71.23;28.60;;;4.80;99.90;;;;;;4938945;29;20236;-78
2022/03/15 07:32:39;;;;;;;68.80;30.97;;;4.70;99.90;;;;;;4954204;28;20176;-76
2022/03/15 07:35:09;;;;;;;116.73;32.27;;;4.70;99.90;;;;;;4971231;28;20213;-77
2022/03/15 07:37:35;;;;;;;71.87;32.17;;;4.60;99.90;;;;;;4938611;29;20191;-77
2022/03/15 07:40:01;;;;;;;68.93;33.70;;;4.60;99.90;;;;;;4947262;28;20216;-76
2022/03/15 07:42:26;;;;;;;68.07;31.70;;;4.70;99.90;;;;;;4945505;29;20189;-75
2022/03/15 07:44:52;;;;;;;171.60;35.33;;;4.80;99.90;;;;;;4965225;28;20251;-82
2022/03/15 07:47:18;;;;;;;77.97;35.23;;;4.80;99.90;;;;;;4971084;28;20172;-81
2022/03/15 07:49:47;;;;;;;79.20;35.30;;;4.80;99.90;;;;;;4949879;28;20261;-81
2022/03/15 07:52:14;;;;;;;195.27;36.27;;;4.80;99.90;;;;;;4953309;29;20181;-81
2022/03/15 07:54:39;;;;;;;83.77;34.10;;;4.80;99.90;;;;;;4954603;29;20201;-82
2022/03/15 07:57:06;;;;;;;80.23;34.60;;;4.80;99.90;;;;;;4953814;28;20180;-80
2022/03/15 07:59:33;;;;;;;128.83;36.47;;;4.70;99.90;;;;;;4954325;28;20224;-79
2022/03/15 08:01:59;;;;;;;158.43;36.90;;;4.70;99.90;;;;;;4956741;29;20268;-79
2022/03/15 08:04:25;;;;;;;103.60;37.00;;;4.70;99.90;;;;;;4966337;28;20180;-79
2022/03/15 08:06:50;;;;;;;81.00;37.90;;;4.70;99.90;;;;;;4962036;29;20176;-79
2022/03/15 08:09:16;;;;;;;84.60;38.30;;;4.80;99.90;;;;;;4977402;28;20184;-81
2022/03/15 08:11:42;;;;;;;82.63;36.60;;;4.90;99.90;;;;;;4954268;29;20200;-83
2022/03/15 08:14:09;;;;;;;70.03;36.60;;;5.00;99.90;;;;;;4949590;29;20284;-77
2022/03/15 08:16:35;;;;;;;78.83;37.17;;;5.40;99.90;;;;;;4942796;29;20221;-77
2022/03/15 08:19:01;;;;;;;76.77;37.60;;;5.60;99.90;;;;;;4958545;28;20232;-78
2022/03/15 08:21:27;;;;;;;71.17;36.13;;;5.70;99.90;;;;;;4946560;29;20272;-78
2022/03/15 08:23:53;;;;;;;67.83;34.37;;;5.90;99.90;;;;;;4950537;29;20235;-77
2022/03/15 08:26:19;;;;;;;66.23;34.70;;;6.00;99.90;;;;;;4944366;29;20219;-77
2022/03/15 08:28:48;;;;;;;75.77;38.33;;;6.10;99.90;;;;;;4942823;29;20204;-78
2022/03/15 08:31:14;;;;;;;74.03;36.43;;;6.10;99.90;;;;;;4945472;28;20201;-78
2022/03/15 08:33:41;;;;;;;78.13;38.17;;;6.10;99.90;;;;;;4948460;29;20181;-78
2022/03/15 08:36:07;;;;;;;72.90;38.37;;;6.20;99.90;;;;;;4940537;29;20251;-77
2022/03/15 08:38:32;;;;;;;70.43;37.40;;;6.20;99.90;;;;;;4944094;29;20236;-78
2022/03/15 08:40:58;;;;;;;66.53;36.53;;;6.30;99.90;;;;;;4942626;28;20564;-77
2022/03/15 08:43:27;;;;;;;71.27;36.87;;;6.40;99.90;;;;;;4942131;29;20215;-77
2022/03/15 08:45:55;;;;;;;65.23;34.33;;;6.70;99.90;;;;;;4939421;29;20200;-77
2022/03/15 08:48:21;;;;;;;58.43;31.93;;;6.90;99.90;;;;;;4943106;29;20607;-80
2022/03/15 08:50:47;;;;;;;55.83;31.60;;;7.10;99.90;;;;;;4950489;28;20231;-82
2022/03/15 08:53:13;;;;;;;60.90;33.83;;;7.20;99.90;;;;;;4943572;29;20190;-79
2022/03/15 08:55:39;;;;;;;66.80;36.00;;;7.30;99.90;;;;;;4945483;29;20189;-82
2022/03/15 08:58:05;;;;;;;69.83;38.00;;;7.20;99.90;;;;;;4950753;29;20635;-81
2022/03/15 09:00:31;;;;;;;73.40;38.13;;;7.30;99.90;;;;;;4956165;28;20226;-77
2022/03/15 09:02:56;;;;;;;76.23;38.70;;;7.30;99.90;;;;;;4952413;29;20178;-83
2022/03/15 09:05:22;;;;;;;66.70;37.77;;;7.40;99.90;;;;;;4952330;29;20274;-78
2022/03/15 09:07:52;;;;;;;68.83;35.77;;;7.50;99.90;;;;;;4951940;28;20176;-79
2022/03/15 09:10:23;;;;;;;65.77;37.43;;;7.70;99.90;;;;;;4957112;29;20225;-79
2022/03/15 09:12:51;;;;;;;63.67;37.37;;;7.80;99.90;;;;;;4951111;29;20183;-78
2022/03/15 09:15:20;;;;;;;70.87;38.80;;;7.70;99.90;;;;;;4923643;29;20182;-79
2022/03/15 09:17:57;;;;;;;65.47;36.20;;;7.60;99.90;;;;;;4949381;29;20173;-77
2022/03/15 09:20:26;;;;;;;64.30;37.43;;;7.40;99.90;;;;;;4937111;29;20217;-77
2022/03/15 09:23:06;;;;;;;68.47;37.60;;;7.50;99.90;;;;;;4953342;29;20529;-78
2022/03/15 09:25:38;;;;;;;63.47;36.73;;;7.50;99.90;;;;;;4954019;28;20169;-78
2022/03/15 09:28:06;;;;;;;67.67;36.13;;;7.50;99.90;;;;;;4965354;28;20215;-78
2022/03/15 09:30:34;;;;;;;71.43;39.70;;;7.60;99.90;;;;;;4964890;28;20566;-78
2022/03/15 09:33:00;;;;;;;67.43;39.10;;;7.50;99.90;;;;;;4958246;28;20187;-82
2022/03/15 09:35:26;;;;;;;66.70;37.47;;;7.40;99.90;;;;;;4955958;29;20185;-81
2022/03/15 09:37:52;;;;;;;63.67;34.77;;;7.70;99.90;;;;;;4969514;28;20195;-78
2022/03/15 09:40:25;;;;;;;67.03;35.67;;;7.90;99.90;;;;;;4954781;28;20270;-77
2022/03/15 09:43:02;;;;;;;66.47;38.13;;;8.20;99.90;;;;;;4991087;23;20218;-81
2022/03/15 09:45:35;;;;;;;73.83;38.73;;;8.30;99.90;;;;;;4952796;28;20233;-81
2022/03/15 09:48:04;;;;;;;63.80;36.70;;;8.40;99.90;;;;;;4982611;28;20237;-80
2022/03/15 09:50:31;;;;;;;66.60;35.67;;;8.40;99.90;;;;;;4962364;28;20172;-83
2022/03/15 09:53:09;;;;;;;47.53;29.77;;;8.40;99.90;;;;;;4932493;29;20223;-82
2022/03/15 09:55:37;;;;;;;52.97;29.30;;;8.50;99.90;;;;;;4952680;28;20177;-80
2022/03/15 09:58:03;;;;;;;44.90;27.50;;;8.40;99.90;;;;;;4948676;29;20236;-81
2022/03/15 10:00:30;;;;;;;45.57;27.43;;;8.30;99.90;;;;;;4944555;29;20201;-80
2022/03/15 10:02:56;;;;;;;39.93;26.37;;;8.10;99.90;;;;;;4946103;29;20207;-82
2022/03/15 10:05:21;;;;;;;45.40;26.93;;;8.10;99.90;;;;;;4947337;28;20222;-82
2022/03/15 10:07:48;;;;;;;43.73;28.53;;;8.20;99.90;;;;;;4949812;29;20176;-81
2022/03/15 10:10:15;;;;;;;41.83;27.33;;;8.30;99.90;;;;;;4930861;29;20184;-81
2022/03/15 10:12:42;;;;;;;40.03;27.50;;;8.50;99.90;;;;;;4944532;29;20198;-81
2022/03/15 10:15:21;;;;;;;38.77;25.90;;;8.60;99.90;;;;;;4964186;29;20176;-81
2022/03/15 10:17:53;;;;;;;34.63;24.00;;;8.70;99.90;;;;;;4946233;29;20176;-83
2022/03/15 10:20:23;;;;;;;37.20;24.47;;;8.70;99.90;;;;;;4939457;29;20174;-82
2022/03/15 10:22:53;;;;;;;34.50;22.63;;;8.80;99.90;;;;;;4944563;29;20197;-80
2022/03/15 10:25:22;;;;;;;33.67;23.13;;;8.80;99.90;;;;;;4944011;29;20240;-83
2022/03/15 10:28:02;;;;;;;26.73;18.83;;;9.00;99.90;;;;;;4948600;29;20172;-80
2022/03/15 10:30:30;;;;;;;27.63;17.67;;;9.20;99.90;;;;;;4923203;29;20207;-82
2022/03/15 10:32:57;;;;;;;22.47;16.83;;;9.30;99.90;;;;;;4931791;29;20208;-84
2022/03/15 10:35:25;;;;;;;28.03;17.53;;;9.10;99.90;;;;;;4945995;29;20174;-82
2022/03/15 10:37:55;;;;;;;25.73;15.63;;;9.00;99.90;;;;;;4933604;29;20185;-83
2022/03/15 10:40:33;;;;;;;23.53;15.13;;;9.10;99.90;;;;;;4943234;29;20554;-83
2022/03/15 10:43:13;;;;;;;22.20;14.37;;;9.20;99.90;;;;;;4930725;29;20226;-83
2022/03/15 10:45:45;;;;;;;19.10;13.17;;;9.30;99.90;;;;;;4946764;29;20204;-84
2022/03/15 10:48:19;;;;;;;21.43;13.90;;;9.40;99.90;;;;;;4938288;29;20220;-82
2022/03/15 10:51:11;;;;;;;18.53;12.93;;;9.20;99.90;;;;;;4928442;29;20181;-82
2022/03/15 10:53:38;;;;;;;22.47;13.87;;;9.20;99.90;;;;;;4946048;29;20185;-81
2022/03/15 10:56:22;;;;;;;20.83;14.20;;;9.20;99.90;;;;;;4947214;29;20244;-82
2022/03/15 10:58:48;;;;;;;23.40;13.43;;;9.10;99.90;;;;;;4943680;29;20242;-82
2022/03/15 11:01:19;;;;;;;19.53;12.80;;;9.10;99.90;;;;;;4962920;28;20644;-82
2022/03/15 11:04:03;;;;;;;17.40;12.27;;;9.10;99.90;;;;;;4940638;29;20180;-82
2022/03/15 11:06:40;;;;;;;17.17;12.37;;;9.10;99.90;;;;;;4925137;29;20273;-78
2022/03/15 11:09:32;;;;;;;22.17;12.67;;;9.30;99.90;;;;;;4942921;29;20233;-83
2022/03/15 11:12:09;;;;;;;20.47;12.67;;;9.40;99.90;;;;;;4945831;29;20201;-83
2022/03/15 11:14:48;;;;;;;21.47;13.33;;;9.40;99.90;;;;;;4963321;29;20227;-82
2022/03/15 11:17:16;;;;;;;20.90;13.27;;;9.40;99.90;;;;;;4935982;29;20176;-84
2022/03/15 11:19:48;;;;;;;24.83;14.33;;;9.50;99.90;;;;;;4948848;29;20201;-82
2022/03/15 11:22:49;;;;;;;23.97;14.43;;;9.60;99.90;;;;;;4951154;29;20213;-84
2022/03/15 11:25:29;;;;;;;21.23;14.43;;;9.70;99.90;;;;;;4943849;29;20180;-81
2022/03/15 11:27:56;;;;;;;21.97;14.10;;;9.80;99.90;;;;;;4944976;29;20173;-82
2022/03/15 11:30:22;;;;;;;23.47;13.93;;;10.00;99.90;;;;;;4947838;28;20183;-83
2022/03/15 11:32:49;;;;;;;24.97;13.77;;;10.00;99.90;;;;;;4944983;29;20260;-82
2022/03/15 11:35:20;;;;;;;22.03;14.33;;;10.10;99.90;;;;;;4946432;29;20188;-82
2022/03/15 11:37:47;;;;;;;22.50;13.20;;;10.20;99.90;;;;;;4945923;29;20172;-82
2022/03/15 11:40:12;;;;;;;25.07;14.13;;;10.50;99.90;;;;;;4947072;29;20192;-83
2022/03/15 11:42:44;;;;;;;24.33;14.10;;;10.70;99.90;;;;;;4946647;29;20210;-83
2022/03/15 11:45:26;;;;;;;26.90;14.87;;;10.90;99.90;;;;;;4951177;29;20178;-82
2022/03/15 11:48:14;;;;;;;21.57;14.80;;;10.70;99.90;;;;;;4955082;29;20185;-82
2022/03/15 11:50:52;;;;;;;23.30;14.90;;;10.40;99.90;;;;;;4963452;29;20181;-82
2022/03/15 11:53:49;;;;;;;23.00;14.40;;;10.30;99.90;;;;;;4965336;28;20207;-81
2022/03/15 11:56:32;;;;;;;24.07;14.90;;;10.30;99.90;;;;;;4945850;29;20184;-81
2022/03/15 11:59:00;;;;;;;21.40;13.83;;;10.40;99.90;;;;;;4968585;29;20197;-82
2022/03/15 12:01:28;;;;;;;23.63;14.87;;;10.50;99.90;;;;;;4952478;28;20182;-81
2022/03/15 12:03:57;;;;;;;29.10;15.80;;;10.70;99.90;;;;;;4932001;29;20186;-82
2022/03/15 12:06:31;;;;;;;25.57;15.83;;;10.90;99.90;;;;;;4949665;29;20205;-82
2022/03/15 12:09:03;;;;;;;25.30;15.13;;;11.00;99.90;;;;;;4924455;29;20174;-81
2022/03/15 12:11:39;;;;;;;25.67;15.17;;;11.10;99.90;;;;;;4950595;28;20182;-81
2022/03/15 12:14:17;;;;;;;29.17;15.33;;;11.00;99.90;;;;;;4948765;29;20184;-82
2022/03/15 12:16:47;;;;;;;20.33;13.77;;;11.10;99.90;;;;;;4948766;29;20195;-82
2022/03/15 12:21:59;;;;;;;21.63;15.17;;;11.20;99.90;;;;;;4962392;28;20196;-82
2022/03/15 12:24:29;;;;;;;21.90;14.40;;;11.40;99.90;;;;;;4933012;29;20264;-81
2022/03/15 12:26:59;;;;;;;22.47;14.90;;;11.50;99.90;;;;;;4960126;29;20191;-81
2022/03/15 12:29:27;;;;;;;26.03;16.80;;;11.60;99.90;;;;;;4930137;29;20180;-81
2022/03/15 12:32:08;;;;;;;24.83;15.10;;;11.60;99.90;;;;;;4942853;29;20215;-79
2022/03/15 12:34:34;;;;;;;30.63;18.33;;;11.70;99.90;;;;;;4942858;29;20199;-80
2022/03/15 12:37:00;;;;;;;30.27;19.87;;;11.60;99.90;;;;;;4945994;29;20253;-80
2022/03/15 12:39:33;;;;;;;29.93;18.77;;;11.60;99.90;;;;;;4945123;29;20703;-80
2022/03/15 12:42:33;;;;;;;24.67;14.07;;;11.70;99.90;;;;;;4941119;29;20220;-81
2022/03/15 12:45:14;;;;;;;20.10;14.77;;;11.90;99.90;;;;;;4965087;29;20592;-78